Weather at Oslo Gardermoen Airport

Public forecast

Using degrees Celsius for public forecast. Weather courtesy of forecast.io.

Current aviation weather report (METAR) for Oslo Gardermoen Airport

Retrieved 2021/04/22 23:20 UTC (26 minutes ago):

ENGM 222320Z VRB03KT CAVOK 01/M10 Q1017

Aviation forecast (TAF) for Oslo Gardermoen Airport

Retrieved 2021/04/22 18:57 UTC (5 hours ago):

TAF ENGM 221700Z 2218/2318 36017KT CAVOK BECMG 2219/2221 36007KT BECMG 2306/2308 36017G27KT